Time;durP1;ratioP1;P1;durP2;ratioP2;P2;SDS_P1;SDS_P2;PMS_P1;PMS_P2;Temp;Humidity;BMP_temperature;BMP_pressure;BME280_temperature;BME280_humidity;BME280_pressure;Samples;Min_cycle;Max_cycle;Signal;HPM_P1;HPM_P2
2022/12/15 00:39:36;;;;;;;34.30;21.77;;;;;;;2.86;59.44;96206.56;5053613;28;20465;-70
2022/12/15 00:42:01;;;;;;;39.77;23.13;;;;;;;2.80;59.23;96214.00;5061226;28;20561;-72
2022/12/15 00:44:27;;;;;;;38.80;23.30;;;;;;;2.95;59.15;96217.06;5061015;28;20662;-71
2022/12/15 00:46:54;;;;;;;38.90;23.30;;;;;;;3.02;59.13;96223.41;5060387;28;20670;-71
2022/12/15 01:22:17;;;;;;;37.97;21.80;;;;;;;2.61;59.73;96252.59;5054125;28;20520;-69
2022/12/15 01:24:43;;;;;;;37.53;23.60;;;;;;;2.63;59.88;96256.81;5057480;28;20516;-69
2022/12/15 01:27:08;;;;;;;36.23;22.57;;;;;;;2.78;59.55;96255.53;5059273;28;20213;-70
2022/12/15 01:29:34;;;;;;;37.13;23.47;;;;;;;2.82;59.79;96263.88;5067910;28;20504;-69
2022/12/15 01:31:59;;;;;;;37.53;24.03;;;;;;;2.97;59.33;96261.78;5055297;28;20194;-69
2022/12/15 01:34:25;;;;;;;39.80;22.97;;;;;;;3.07;58.50;96257.47;5053753;28;20224;-69
2022/12/15 01:36:50;;;;;;;37.37;23.90;;;;;;;3.11;58.57;96252.84;5050676;28;20199;-70
2022/12/15 01:39:17;;;;;;;35.23;22.43;;;;;;;2.98;59.06;96250.47;5051671;28;20306;-69
2022/12/15 01:41:42;;;;;;;36.97;23.10;;;;;;;2.89;59.02;96255.50;5058682;28;21002;-70
2022/12/15 01:44:19;;;;;;;39.27;23.23;;;;;;;3.03;59.12;96256.06;5057351;28;20765;-69
2022/12/15 01:46:47;;;;;;;40.30;23.70;;;;;;;3.05;59.07;96249.00;5062537;28;20737;-70
2022/12/15 01:49:16;;;;;;;41.30;23.47;;;;;;;2.95;59.21;96254.16;5049914;28;20500;-70
2022/12/15 01:51:46;;;;;;;36.37;21.70;;;;;;;3.01;59.56;96260.59;5055646;28;20938;-69
2022/12/15 01:54:15;;;;;;;34.30;22.50;;;;;;;3.03;59.25;96263.84;5052634;28;20439;-70
2022/12/15 01:56:50;;;;;;;37.70;22.70;;;;;;;3.02;59.25;96270.00;5061401;28;20706;-70
2022/12/15 01:59:18;;;;;;;37.60;23.10;;;;;;;2.80;59.47;96266.56;5058788;28;20901;-70
2022/12/15 02:01:44;;;;;;;39.43;23.77;;;;;;;2.78;59.85;96263.28;5064468;28;20421;-68
2022/12/15 02:04:10;;;;;;;34.10;21.70;;;;;;;2.82;60.00;96269.88;5060827;28;20444;-69
2022/12/15 02:06:35;;;;;;;38.00;23.50;;;;;;;2.90;59.71;96272.63;5051144;28;20520;-69
2022/12/15 02:09:01;;;;;;;40.10;24.03;;;;;;;2.90;59.75;96274.41;5061318;28;20280;-68
2022/12/15 02:11:32;;;;;;;37.90;22.10;;;;;;;2.95;60.06;96284.38;5059477;28;20183;-71
2022/12/15 02:14:03;;;;;;;37.53;22.53;;;;;;;2.97;59.80;96277.31;5054632;28;20909;-71
2022/12/15 02:16:46;;;;;;;38.30;23.40;;;;;;;2.94;59.82;96277.56;5059194;28;20448;-70
2022/12/15 02:19:42;;;;;;;38.13;22.20;;;;;;;2.89;59.49;96278.78;5053372;28;20546;-70
2022/12/15 02:22:38;;;;;;;37.47;23.00;;;;;;;2.89;59.62;96283.97;5049530;28;20532;-70
2022/12/15 02:25:21;;;;;;;43.63;23.43;;;;;;;2.94;59.25;96283.56;5059369;28;20532;-70
2022/12/15 02:27:58;;;;;;;39.87;24.00;;;;;;;3.04;59.57;96281.84;5049020;28;20428;-69
2022/12/15 02:33:58;;;;;;;38.27;24.30;;;;;;;3.20;59.29;96289.16;5055752;28;20429;-71
2022/12/15 02:36:32;;;;;;;40.87;24.90;;;;;;;3.16;59.01;96287.75;5048259;28;20453;-71
2022/12/15 02:38:58;;;;;;;39.07;24.10;;;;;;;3.15;59.20;96277.53;5054171;28;20549;-71
2022/12/15 02:41:41;;;;;;;38.17;23.33;;;;;;;3.15;59.18;96282.72;5057859;28;20523;-69
2022/12/15 02:44:29;;;;;;;37.70;23.93;;;;;;;3.14;58.66;96278.50;5054508;28;20186;-70
2022/12/15 02:47:23;;;;;;;40.17;23.93;;;;;;;3.07;58.88;96289.38;5060014;28;20457;-70
2022/12/15 02:50:04;;;;;;;39.23;24.33;;;;;;;3.15;59.24;96286.13;5049467;28;20410;-70
2022/12/15 02:52:51;;;;;;;41.13;24.37;;;;;;;3.17;58.80;96292.00;5056359;28;20453;-69
2022/12/15 02:55:28;;;;;;;36.50;21.90;;;;;;;3.15;58.80;96288.72;5053109;28;20521;-70
2022/12/15 02:58:33;;;;;;;39.50;24.93;;;;;;;3.21;58.17;96288.22;5051239;28;20795;-69
2022/12/15 03:01:03;;;;;;;40.40;24.57;;;;;;;3.20;58.05;96298.72;5036015;28;20842;-71
2022/12/15 03:03:30;;;;;;;45.13;24.83;;;;;;;3.14;58.57;96296.63;5056916;28;20426;-71
2022/12/15 03:05:56;;;;;;;41.57;24.90;;;;;;;3.13;58.15;96305.34;5053339;28;21000;-71
2022/12/15 03:08:21;;;;;;;40.57;24.33;;;;;;;3.13;58.64;96282.88;5059581;28;20417;-70
2022/12/15 03:10:51;;;;;;;37.60;24.73;;;;;;;3.15;58.53;96300.84;5060878;28;20179;-69
2022/12/15 03:13:17;;;;;;;39.90;23.70;;;;;;;3.05;58.83;96300.78;5052251;28;20194;-70
2022/12/15 03:15:42;;;;;;;39.17;23.20;;;;;;;3.09;58.82;96307.34;5061532;28;20448;-69
2022/12/15 03:18:08;;;;;;;47.97;27.70;;;;;;;3.08;58.63;96303.13;5057523;28;20201;-69
2022/12/15 03:20:33;;;;;;;40.80;23.73;;;;;;;3.15;58.70;96309.41;5057372;28;20175;-69
2022/12/15 03:23:00;;;;;;;46.47;25.30;;;;;;;3.20;58.65;96325.41;5064566;28;20187;-70
2022/12/15 03:25:26;;;;;;;42.80;25.47;;;;;;;3.16;58.78;96318.84;5059721;28;20624;-70
2022/12/15 03:27:51;;;;;;;41.33;24.97;;;;;;;3.19;58.20;96310.00;5058779;28;20500;-70
2022/12/15 03:30:17;;;;;;;47.90;25.33;;;;;;;3.08;57.91;96308.31;5063350;28;20179;-70
2022/12/15 03:32:42;;;;;;;45.07;26.57;;;;;;;3.06;58.64;96313.63;5055048;28;20206;-71
2022/12/15 03:35:08;;;;;;;44.80;25.87;;;;;;;3.15;58.66;96311.19;5058961;28;20206;-69
2022/12/15 03:37:33;;;;;;;43.27;25.60;;;;;;;3.14;58.54;96310.41;5057335;28;20702;-69
2022/12/15 03:39:59;;;;;;;44.40;26.03;;;;;;;3.16;58.47;96313.66;5054250;28;20203;-69
2022/12/15 03:45:08;;;;;;;45.00;26.43;;;;;;;3.10;58.91;96321.94;5063448;28;20289;-71
2022/12/15 03:47:33;;;;;;;49.00;26.47;;;;;;;3.16;58.71;96328.38;5062503;28;20840;-71
2022/12/15 03:49:59;;;;;;;44.27;26.10;;;;;;;2.97;59.37;96337.66;5053542;28;20175;-71
2022/12/15 03:52:24;;;;;;;43.10;25.47;;;;;;;2.90;59.01;96331.34;5060391;28;20697;-71
2022/12/15 03:54:50;;;;;;;46.27;26.43;;;;;;;2.77;59.42;96328.97;5055320;28;20658;-70
2022/12/15 03:57:15;;;;;;;46.13;27.47;;;;;;;2.80;59.62;96333.88;5060088;28;20230;-71
2022/12/15 03:59:41;;;;;;;44.80;27.17;;;;;;;2.85;59.95;96336.91;5058874;28;20222;-70
2022/12/15 04:02:08;;;;;;;48.83;27.13;;;;;;;2.82;58.88;96347.50;5056585;28;20277;-71
2022/12/15 04:04:34;;;;;;;47.03;27.30;;;;;;;2.86;59.39;96343.72;5061439;28;20183;-71
2022/12/15 04:06:59;;;;;;;52.00;28.50;;;;;;;2.90;59.52;96346.88;5057694;28;20450;-71
2022/12/15 04:09:25;;;;;;;47.23;27.40;;;;;;;2.86;59.89;96342.91;5061025;28;20270;-71
2022/12/15 04:11:50;;;;;;;46.77;26.20;;;;;;;2.88;59.70;96357.38;5056130;28;20724;-69
2022/12/15 04:14:15;;;;;;;47.93;27.50;;;;;;;2.93;59.76;96349.22;5059377;28;20666;-69
2022/12/15 04:16:41;;;;;;;55.17;28.83;;;;;;;2.85;59.83;96349.84;5060829;28;20302;-70
2022/12/15 04:21:50;;;;;;;49.43;28.37;;;;;;;2.96;59.45;96356.72;5054800;28;20178;-70
2022/12/15 05:32:35;;;;;;;51.00;27.90;;;;;;;2.86;59.05;96374.78;5052171;28;20427;-69
2022/12/15 05:35:01;;;;;;;71.30;35.67;;;;;;;2.68;59.90;96378.84;5058809;28;20942;-70
2022/12/15 05:37:26;;;;;;;54.07;30.70;;;;;;;2.69;59.79;96378.75;5056633;28;20175;-70
2022/12/15 05:39:52;;;;;;;56.57;30.27;;;;;;;2.73;59.73;96389.66;5051802;28;20277;-71
2022/12/15 05:42:17;;;;;;;50.43;28.73;;;;;;;2.74;60.00;96381.75;5061171;28;20661;-70
2022/12/15 05:44:43;;;;;;;49.97;28.87;;;;;;;2.72;59.65;96369.91;5060808;28;20730;-71
2022/12/15 05:47:10;;;;;;;62.47;33.77;;;;;;;2.65;60.03;96367.00;5057107;28;20285;-70
2022/12/15 05:49:35;;;;;;;86.30;42.03;;;;;;;2.58;59.96;96379.59;5056375;28;20179;-69
2022/12/15 05:52:01;;;;;;;74.70;38.07;;;;;;;2.74;60.13;96380.97;5058917;28;20516;-70
2022/12/15 05:54:26;;;;;;;57.87;31.17;;;;;;;2.87;59.62;96398.88;5056158;28;20252;-70
2022/12/15 05:56:52;;;;;;;47.20;28.47;;;;;;;2.84;59.56;96402.56;5050782;28;20211;-69
2022/12/15 05:59:18;;;;;;;48.73;28.10;;;;;;;2.72;59.81;96390.59;5057160;28;20565;-70
2022/12/15 06:01:43;;;;;;;55.73;28.97;;;;;;;2.88;59.58;96401.38;5058193;28;20185;-70
2022/12/15 06:04:11;;;;;;;47.40;27.37;;;;;;;2.99;59.41;96389.31;5054192;28;20275;-69
2022/12/15 06:06:37;;;;;;;50.87;28.17;;;;;;;2.96;58.74;96389.56;5054796;28;20198;-71
2022/12/15 06:09:03;;;;;;;48.80;27.00;;;;;;;2.94;59.40;96387.13;5057072;28;20528;-70
2022/12/15 06:11:28;;;;;;;53.50;30.20;;;;;;;2.95;59.17;96395.69;5061837;28;20183;-70
2022/12/15 06:13:54;;;;;;;51.53;27.80;;;;;;;2.91;59.09;96398.50;5051706;28;20549;-72
2022/12/15 06:16:21;;;;;;;53.73;28.13;;;;;;;2.89;58.94;96397.84;5062436;28;20294;-71
2022/12/15 06:18:49;;;;;;;53.57;28.77;;;;;;;2.72;59.56;96413.91;5057580;28;20544;-71
2022/12/15 06:21:17;;;;;;;50.70;27.40;;;;;;;2.69;60.21;96404.63;5055639;28;20436;-72
2022/12/15 06:23:43;;;;;;;50.50;28.53;;;;;;;2.63;60.51;96389.56;5053036;28;20418;-70
2022/12/15 06:26:20;;;;;;;51.27;28.17;;;;;;;2.85;59.94;96403.38;5055088;28;20444;-70
2022/12/15 06:28:47;;;;;;;44.20;25.90;;;;;;;2.88;59.22;96392.78;5046195;28;21405;-70
2022/12/15 06:31:13;;;;;;;53.77;28.70;;;;;;;2.95;59.37;96399.13;5054129;28;20461;-70
2022/12/15 06:33:38;;;;;;;49.10;27.50;;;;;;;2.98;59.02;96392.84;5056682;28;20504;-68
2022/12/15 06:36:09;;;;;;;48.57;27.83;;;;;;;3.07;59.11;96405.03;5051331;28;20544;-69
2022/12/15 06:38:35;;;;;;;51.43;28.23;;;;;;;3.10;58.88;96397.03;5050597;28;20260;-69
2022/12/15 06:41:02;;;;;;;51.47;28.73;;;;;;;3.10;59.07;96399.63;5063459;28;20432;-71
2022/12/15 06:43:28;;;;;;;46.50;26.47;;;;;;;3.14;58.72;96400.19;5062671;28;20445;-70
2022/12/15 06:45:54;;;;;;;45.53;26.63;;;;;;;3.16;58.73;96406.88;5060425;28;20814;-70
2022/12/15 06:48:20;;;;;;;47.03;27.13;;;;;;;3.08;58.43;96404.09;5060015;28;20437;-70
2022/12/15 06:50:46;;;;;;;46.77;26.57;;;;;;;3.05;59.09;96406.94;5063667;28;20669;-68
2022/12/15 06:53:12;;;;;;;45.97;26.33;;;;;;;3.05;58.89;96404.34;5058847;28;20476;-68
2022/12/15 06:55:37;;;;;;;51.27;28.03;;;;;;;2.92;59.22;96402.75;5065235;28;20234;-69
2022/12/15 06:58:03;;;;;;;52.20;27.63;;;;;;;2.94;59.19;96394.88;5059247;28;20578;-69
2022/12/15 07:00:28;;;;;;;49.33;29.10;;;;;;;2.93;59.54;96385.47;5062260;28;20186;-70
2022/12/15 07:02:54;;;;;;;51.77;28.13;;;;;;;2.91;59.77;96382.19;5056482;28;20186;-71
2022/12/15 07:05:20;;;;;;;47.63;26.93;;;;;;;2.86;59.52;96395.50;5056041;28;20214;-68
2022/12/15 07:07:46;;;;;;;58.87;28.73;;;;;;;2.80;60.08;96390.81;5056232;28;20305;-69
2022/12/15 07:10:12;;;;;;;51.83;27.33;;;;;;;2.84;60.58;96396.53;5057014;28;20814;-69
2022/12/15 07:12:37;;;;;;;49.77;27.50;;;;;;;2.99;59.76;96410.84;5051254;28;20425;-69
2022/12/15 07:15:03;;;;;;;55.17;28.20;;;;;;;3.08;59.32;96398.91;5060698;28;20189;-71
2022/12/15 07:17:28;;;;;;;47.73;26.30;;;;;;;3.06;59.72;96406.81;5044666;28;20614;-68
2022/12/15 07:19:54;;;;;;;50.00;29.03;;;;;;;3.03;59.85;96406.22;5041531;28;20203;-69
2022/12/15 07:22:20;;;;;;;49.57;27.87;;;;;;;3.09;59.70;96405.75;5039466;28;20195;-69
2022/12/15 07:24:46;;;;;;;51.43;27.77;;;;;;;3.13;59.34;96417.50;5047467;28;20269;-69
2022/12/15 07:27:13;;;;;;;52.07;27.77;;;;;;;3.14;59.55;96426.91;5040604;28;20983;-69
2022/12/15 07:29:38;;;;;;;48.30;26.57;;;;;;;3.06;59.40;96416.34;5045508;28;20184;-69
2022/12/15 07:32:04;;;;;;;51.90;28.67;;;;;;;2.88;59.84;96416.91;5052935;28;20425;-70
2022/12/15 07:34:29;;;;;;;48.90;27.20;;;;;;;3.05;60.13;96415.53;5056294;28;20180;-69
2022/12/15 07:36:55;;;;;;;49.10;26.23;;;;;;;3.10;59.86;96412.56;5055784;28;20234;-70
2022/12/15 07:39:20;;;;;;;50.63;27.90;;;;;;;3.14;59.41;96413.97;5056011;28;20211;-70
2022/12/15 07:41:46;;;;;;;53.33;27.87;;;;;;;3.15;59.56;96419.97;5060604;28;20175;-70
2022/12/15 07:44:13;;;;;;;51.37;28.60;;;;;;;3.07;59.64;96418.00;5056386;28;20236;-68
2022/12/15 07:46:39;;;;;;;48.87;26.90;;;;;;;3.18;58.94;96417.94;5056992;28;20195;-71
2022/12/15 07:49:04;;;;;;;47.33;27.53;;;;;;;3.19;59.08;96421.38;5056456;28;20428;-72
2022/12/15 07:51:29;;;;;;;48.97;26.90;;;;;;;2.89;59.66;96409.94;5054576;28;20187;-70
2022/12/15 07:53:55;;;;;;;55.60;29.43;;;;;;;2.85;59.73;96414.56;5053230;28;20289;-71
2022/12/15 07:56:20;;;;;;;49.03;28.47;;;;;;;2.90;59.74;96422.75;5052670;28;20256;-73
2022/12/15 07:58:46;;;;;;;52.93;28.87;;;;;;;3.04;59.67;96428.59;5051779;28;20204;-72
2022/12/15 08:01:13;;;;;;;53.13;29.37;;;;;;;3.13;59.99;96430.44;5050250;28;20190;-70
2022/12/15 08:03:38;;;;;;;52.80;28.77;;;;;;;3.22;58.98;96439.22;5052629;28;20179;-71
2022/12/15 08:06:05;;;;;;;49.63;27.30;;;;;;;2.99;59.53;96447.09;5045143;28;20460;-70
2022/12/15 08:08:31;;;;;;;51.63;28.33;;;;;;;3.09;59.47;96457.53;5048049;28;20258;-70
2022/12/15 08:10:56;;;;;;;51.93;27.63;;;;;;;3.19;59.19;96460.22;5044257;28;20434;-70
2022/12/15 08:13:22;;;;;;;52.73;28.23;;;;;;;3.22;59.02;96458.19;5049260;28;20411;-70
2022/12/15 08:15:52;;;;;;;53.53;27.67;;;;;;;3.31;58.88;96453.19;5053602;28;20246;-70
2022/12/15 08:18:17;;;;;;;46.73;27.60;;;;;;;3.38;58.98;96455.16;5052413;28;20641;-69
2022/12/15 08:20:42;;;;;;;56.30;28.27;;;;;;;3.42;58.54;96463.50;5052375;28;20457;-69
2022/12/15 08:23:08;;;;;;;62.20;31.73;;;;;;;3.43;58.75;96465.13;5055516;28;20252;-70
2022/12/15 08:25:33;;;;;;;55.37;29.90;;;;;;;3.29;58.50;96475.81;5056830;28;20199;-70
2022/12/15 08:27:59;;;;;;;53.23;29.20;;;;;;;3.10;58.99;96482.47;5061081;28;20183;-70
2022/12/15 08:30:24;;;;;;;49.07;29.53;;;;;;;3.07;59.07;96486.16;5057751;28;20179;-70
2022/12/15 08:32:50;;;;;;;45.83;28.93;;;;;;;3.10;59.64;96477.31;5052164;28;20197;-72
2022/12/15 08:35:15;;;;;;;53.77;30.17;;;;;;;3.14;59.50;96476.13;5055123;28;20214;-72
2022/12/15 08:37:41;;;;;;;49.23;29.40;;;;;;;3.14;59.92;96468.34;5049970;28;20197;-70
2022/12/15 08:40:07;;;;;;;48.27;27.60;;;;;;;3.20;59.54;96457.47;5044968;28;20214;-71
2022/12/15 08:42:34;;;;;;;50.73;28.83;;;;;;;3.31;59.64;96463.56;5046837;28;20421;-71
2022/12/15 08:44:59;;;;;;;46.23;26.90;;;;;;;3.36;59.55;96456.25;5046248;28;20441;-71
2022/12/15 08:47:24;;;;;;;53.47;29.00;;;;;;;3.43;59.20;96469.50;5044863;28;20512;-71
2022/12/15 08:49:51;;;;;;;58.93;28.80;;;;;;;3.34;59.89;96479.66;5051275;28;20201;-70
2022/12/15 08:52:17;;;;;;;51.53;29.97;;;;;;;3.46;59.57;96490.81;5045372;28;20191;-71
2022/12/15 08:54:42;;;;;;;47.40;26.83;;;;;;;3.50;59.64;96491.38;5055705;28;20486;-71
2022/12/15 08:57:08;;;;;;;52.10;29.40;;;;;;;3.43;59.54;96488.47;5052491;28;20887;-71
2022/12/15 08:59:33;;;;;;;56.73;29.93;;;;;;;3.54;59.70;96490.19;5049196;28;20203;-71
2022/12/15 09:01:59;;;;;;;50.40;29.90;;;;;;;3.64;59.66;96479.88;5056621;28;20435;-72
2022/12/15 09:04:24;;;;;;;55.43;28.20;;;;;;;3.70;59.15;96476.78;5053148;28;20187;-70
2022/12/15 09:06:50;;;;;;;55.53;30.23;;;;;;;3.70;59.58;96479.38;5047669;28;20213;-70
2022/12/15 09:09:15;;;;;;;55.17;29.80;;;;;;;3.75;59.58;96479.81;5042771;28;20219;-70
2022/12/15 09:11:41;;;;;;;54.33;29.60;;;;;;;3.74;59.79;96485.94;5057847;28;20229;-70
2022/12/15 09:14:07;;;;;;;56.13;30.43;;;;;;;3.77;58.97;96475.34;5048171;28;20179;-69
2022/12/15 09:16:32;;;;;;;54.60;29.60;;;;;;;3.75;59.23;96463.44;5049585;28;20207;-69
2022/12/15 09:18:58;;;;;;;56.53;30.83;;;;;;;3.74;59.38;96461.78;5048808;28;20282;-69
2022/12/15 09:21:25;;;;;;;55.67;30.23;;;;;;;3.73;58.92;96455.78;5051981;28;20232;-69
2022/12/15 09:23:53;;;;;;;61.93;30.30;;;;;;;3.80;59.29;96454.31;5053644;28;20465;-71
2022/12/15 09:26:21;;;;;;;53.67;29.67;;;;;;;3.85;59.32;96456.53;5057741;28;20529;-71
2022/12/15 09:28:47;;;;;;;57.47;28.63;;;;;;;3.92;58.61;96467.19;5059513;28;20418;-70
2022/12/15 09:31:19;;;;;;;56.20;30.53;;;;;;;3.92;58.37;96469.78;5055688;28;20418;-70
2022/12/15 09:33:46;;;;;;;53.40;29.33;;;;;;;3.98;58.87;96469.28;5046262;28;20206;-70
2022/12/15 09:36:12;;;;;;;52.53;29.10;;;;;;;4.07;58.54;96471.09;5049992;28;20453;-70
2022/12/15 09:38:39;;;;;;;56.97;28.87;;;;;;;4.05;58.70;96465.22;5053866;28;20519;-69
2022/12/15 09:41:16;;;;;;;61.60;31.70;;;;;;;4.05;58.19;96472.19;5058437;28;20520;-71
2022/12/15 09:43:58;;;;;;;55.00;29.40;;;;;;;4.06;58.40;96472.06;5055505;28;20416;-70
2022/12/15 09:46:33;;;;;;;52.43;27.70;;;;;;;4.09;57.83;96466.63;5052547;28;20444;-70
2022/12/15 09:49:02;;;;;;;51.10;28.73;;;;;;;4.11;57.96;96469.91;5047199;28;20764;-70
2022/12/15 09:51:33;;;;;;;58.10;29.40;;;;;;;4.00;57.67;96475.19;5050323;28;20433;-71
2022/12/15 09:53:58;;;;;;;59.20;29.10;;;;;;;3.97;58.04;96472.84;5058714;28;20409;-70
2022/12/15 09:56:35;;;;;;;59.10;29.33;;;;;;;3.96;58.27;96486.75;5052285;28;20525;-71
2022/12/15 09:59:08;;;;;;;51.97;29.20;;;;;;;3.98;57.93;96490.03;5057294;28;20209;-70
2022/12/15 10:01:49;;;;;;;57.17;28.60;;;;;;;3.92;57.95;96486.19;5057587;28;20429;-70
2022/12/15 10:04:37;;;;;;;60.40;28.90;;;;;;;3.86;57.15;96484.09;5052447;28;20452;-70
2022/12/15 10:07:36;;;;;;;52.77;28.40;;;;;;;3.82;57.28;96477.53;5053806;28;20461;-72
2022/12/15 10:10:21;;;;;;;57.83;30.33;;;;;;;3.82;57.77;96480.13;5057531;28;20429;-71
2022/12/15 10:12:49;;;;;;;56.83;28.10;;;;;;;3.82;57.47;96482.72;5047452;28;20949;-71
2022/12/15 10:15:24;;;;;;;53.33;27.37;;;;;;;3.82;58.25;96475.75;5042887;28;20444;-70
2022/12/15 10:18:10;;;;;;;60.47;27.77;;;;;;;3.76;58.04;96471.09;5046493;28;20420;-73
2022/12/15 10:20:35;;;;;;;53.27;28.97;;;;;;;3.86;58.20;96473.72;5050178;28;20414;-70
2022/12/15 10:23:10;;;;;;;54.37;28.93;;;;;;;3.91;58.11;96468.16;5047576;28;20433;-70
2022/12/15 10:25:36;;;;;;;55.10;30.40;;;;;;;3.91;58.23;96468.16;5041549;28;20575;-71
2022/12/15 10:28:26;;;;;;;57.97;28.67;;;;;;;3.99;57.71;96471.75;5049934;28;20441;-70
2022/12/15 10:30:54;;;;;;;54.90;28.20;;;;;;;4.03;57.30;96472.34;5047661;28;20275;-69
2022/12/15 10:33:23;;;;;;;55.37;27.93;;;;;;;4.08;57.19;96451.19;5049136;28;20433;-70
2022/12/15 10:35:51;;;;;;;49.00;27.70;;;;;;;4.08;57.40;96449.41;5046569;28;20457;-70
2022/12/15 10:38:36;;;;;;;55.70;28.07;;;;;;;4.11;57.10;96438.78;5049441;28;20429;-71
2022/12/15 10:41:03;;;;;;;55.07;25.87;;;;;;;4.15;56.82;96434.16;5049667;28;20776;-71
2022/12/15 10:43:40;;;;;;;51.17;27.67;;;;;;;4.10;56.92;96441.50;5050097;28;20438;-71
2022/12/15 10:46:26;;;;;;;48.20;26.03;;;;;;;4.03;56.86;96441.22;5050299;28;20511;-70
2022/12/15 10:48:58;;;;;;;52.87;27.60;;;;;;;4.02;56.98;96443.91;5026867;28;20433;-71
2022/12/15 10:51:54;;;;;;;53.47;28.53;;;;;;;4.04;56.92;96442.84;5047928;28;20500;-71
2022/12/15 10:54:20;;;;;;;53.43;26.73;;;;;;;4.12;57.44;96445.63;5048542;28;20452;-70
2022/12/15 10:56:55;;;;;;;57.50;27.97;;;;;;;4.12;57.31;96449.97;5048583;28;20445;-71
2022/12/15 10:59:33;;;;;;;54.00;29.07;;;;;;;4.00;57.55;96431.09;5050175;28;20297;-71
2022/12/15 11:02:20;;;;;;;52.27;28.43;;;;;;;4.05;57.07;96434.09;5045051;28;20925;-71
2022/12/15 11:05:14;;;;;;;50.33;27.20;;;;;;;4.05;57.35;96426.31;5044421;28;20418;-71
2022/12/15 11:07:43;;;;;;;50.10;26.90;;;;;;;4.16;57.44;96412.44;5050228;28;20422;-70
2022/12/15 11:10:14;;;;;;;51.20;27.07;;;;;;;4.19;56.85;96413.94;5051627;28;20428;-71
2022/12/15 11:12:51;;;;;;;50.27;27.57;;;;;;;4.27;56.83;96414.94;5048896;28;20461;-71
2022/12/15 11:15:22;;;;;;;51.37;27.73;;;;;;;4.30;57.25;96401.72;5054534;28;20452;-71
2022/12/15 11:18:01;;;;;;;46.47;26.57;;;;;;;4.36;57.35;96402.97;5049053;28;20455;-71
2022/12/15 11:20:32;;;;;;;50.50;26.57;;;;;;;4.35;56.87;96393.53;5049977;28;20452;-71
2022/12/15 11:23:04;;;;;;;58.70;30.03;;;;;;;4.35;57.13;96397.91;5050513;28;20913;-71
2022/12/15 11:25:37;;;;;;;47.80;27.80;;;;;;;4.33;56.10;96395.44;5055150;28;20433;-71
2022/12/15 11:28:07;;;;;;;49.20;27.27;;;;;;;4.38;56.64;96401.06;5043245;28;20441;-71
2022/12/15 11:30:37;;;;;;;46.23;26.87;;;;;;;4.48;56.62;96408.84;5050694;28;20478;-71
2022/12/15 11:33:03;;;;;;;48.93;27.13;;;;;;;4.51;56.16;96398.19;5053067;28;20426;-70
2022/12/15 11:35:55;;;;;;;48.13;26.93;;;;;;;4.49;56.58;96404.47;5053392;28;20449;-70
2022/12/15 11:38:48;;;;;;;53.60;26.87;;;;;;;4.51;56.49;96403.38;5027225;28;20203;-71
2022/12/15 11:41:35;;;;;;;54.97;27.90;;;;;;;4.55;56.91;96398.75;5056771;28;20443;-71
2022/12/15 11:44:13;;;;;;;45.17;27.30;;;;;;;4.52;56.03;96399.84;5049892;28;20421;-71
2022/12/15 11:47:01;;;;;;;53.07;27.87;;;;;;;4.48;56.27;96395.06;5071225;28;20452;-71
2022/12/15 11:49:45;;;;;;;54.40;27.50;;;;;;;4.48;56.65;96385.47;5052751;28;20418;-71
2022/12/15 11:52:11;;;;;;;50.87;28.70;;;;;;;4.53;56.43;96374.72;5056379;28;20515;-70
2022/12/15 11:54:54;;;;;;;52.03;28.50;;;;;;;4.54;57.24;96381.53;5057983;28;20428;-70
2022/12/15 11:57:44;;;;;;;48.50;27.73;;;;;;;4.58;56.61;96372.53;5054140;28;20472;-70
2022/12/15 12:00:16;;;;;;;56.83;29.87;;;;;;;4.55;56.31;96368.44;5055257;28;20927;-70
2022/12/15 12:02:52;;;;;;;49.50;26.43;;;;;;;4.56;56.84;96353.66;5050201;28;20518;-70
2022/12/15 12:05:30;;;;;;;54.00;28.67;;;;;;;4.53;56.63;96348.78;5054581;28;20444;-71
2022/12/15 12:08:38;;;;;;;48.50;28.23;;;;;;;4.46;57.05;96327.72;5050778;28;20469;-71
2022/12/15 12:11:08;;;;;;;47.70;26.23;;;;;;;4.50;56.86;96321.28;5061751;28;20426;-71
2022/12/15 12:14:06;;;;;;;49.70;27.30;;;;;;;4.43;57.29;96322.81;5045702;28;20418;-71
2022/12/15 12:16:53;;;;;;;52.17;31.88;;;;;;;4.38;57.39;96320.63;5058325;28;20406;-71
2022/12/15 12:19:26;;;;;;;51.87;30.70;;;;;;;4.43;57.11;96317.63;5054426;28;20324;-72
2022/12/15 12:21:59;;;;;;;59.17;29.30;;;;;;;4.35;56.85;96325.25;5042718;28;20835;-71
2022/12/15 12:24:40;;;;;;;50.80;29.17;;;;;;;4.35;57.55;96320.06;5048113;28;20421;-71
2022/12/15 12:27:27;;;;;;;52.83;30.55;;;;;;;4.32;57.46;96320.34;5040675;28;20440;-71
2022/12/15 12:29:59;;;;;;;53.67;29.67;;;;;;;4.34;57.08;96313.25;5000960;28;20556;-70
2022/12/15 12:32:41;;;;;;;49.25;31.92;;;;;;;4.25;57.30;96309.69;5044923;28;20442;-69
2022/12/15 12:35:24;;;;;;;46.20;27.27;;;;;;;4.21;57.58;96313.50;5052576;28;20182;-71
2022/12/15 12:37:57;;;;;;;51.00;27.90;;;;;;;4.25;57.51;96305.31;5026146;28;20542;-72
2022/12/15 12:40:45;;;;;;;55.47;28.10;;;;;;;4.27;57.10;96307.78;5050818;28;20540;-71
2022/12/15 12:43:29;;;;;;;55.97;28.63;;;;;;;4.30;57.60;96317.88;5032086;28;20944;-70
2022/12/15 12:45:56;;;;;;;51.30;27.17;;;;;;;4.38;57.17;96310.25;5049755;28;20839;-72
2022/12/15 12:48:35;;;;;;;58.43;29.37;;;;;;;4.46;57.27;96297.41;5052905;28;20413;-71
2022/12/15 12:51:28;;;;;;;58.27;30.57;;;;;;;4.51;56.95;96298.78;5050734;28;20691;-70
2022/12/15 12:53:54;;;;;;;55.93;27.27;;;;;;;4.53;57.14;96307.25;5047294;28;20418;-71
2022/12/15 12:56:34;;;;;;;50.77;28.00;;;;;;;4.52;57.11;96308.19;5050583;28;20499;-71
2022/12/15 12:59:06;;;;;;;49.13;26.83;;;;;;;4.54;56.96;96301.06;5048209;28;20983;-71
2022/12/15 13:01:34;;;;;;;48.27;26.57;;;;;;;4.53;56.75;96296.88;5040177;28;20472;-70
2022/12/15 13:04:37;;;;;;;48.67;27.27;;;;;;;4.52;56.77;96300.41;5050247;28;20429;-73
2022/12/15 13:07:24;;;;;;;47.83;27.13;;;;;;;4.54;56.94;96307.09;5049100;28;20476;-70
2022/12/15 13:10:08;;;;;;;54.35;32.13;;;;;;;4.48;57.77;96291.25;5045328;28;20495;-71
2022/12/15 13:12:52;;;;;;;50.47;28.40;;;;;;;4.54;56.67;96293.28;5046375;28;20189;-71
2022/12/15 13:15:30;;;;;;;49.70;28.60;;;;;;;4.57;57.31;96290.44;5051563;28;20951;-71
2022/12/15 13:17:59;;;;;;;51.37;27.43;;;;;;;4.58;56.98;96285.13;5049289;28;20512;-70
2022/12/15 13:20:30;;;;;;;45.43;26.93;;;;;;;4.59;56.68;96280.75;5046780;28;20465;-72
2022/12/15 13:23:18;;;;;;;45.20;26.57;;;;;;;4.55;56.28;96269.81;5048859;28;20418;-70
2022/12/15 13:25:45;;;;;;;50.07;27.13;;;;;;;4.57;56.97;96261.88;5050345;28;20452;-71
2022/12/15 13:28:38;;;;;;;46.80;27.20;;;;;;;4.54;56.85;96246.59;5049716;28;20472;-70
2022/12/15 13:31:21;;;;;;;43.07;26.87;;;;;;;4.50;56.93;96229.66;5049092;28;20753;-71
2022/12/15 13:33:50;;;;;;;44.47;25.70;;;;;;;4.52;57.46;96233.75;5050804;28;20949;-70
2022/12/15 13:36:40;;;;;;;49.60;28.33;;;;;;;4.55;57.56;96232.66;5047544;28;20438;-72
2022/12/15 13:39:12;;;;;;;51.10;27.27;;;;;;;4.44;57.30;96237.03;5049948;28;20453;-70
2022/12/15 13:41:50;;;;;;;52.97;28.13;;;;;;;4.44;57.01;96231.03;5050563;28;20410;-71
2022/12/15 13:44:25;;;;;;;52.30;28.43;;;;;;;4.44;57.98;96234.44;5047656;28;20420;-70
2022/12/15 13:46:52;;;;;;;47.83;26.90;;;;;;;4.45;57.60;96233.50;5049808;28;20525;-71
2022/12/15 13:49:28;;;;;;;45.27;27.07;;;;;;;4.48;57.44;96237.56;5041779;28;20407;-72
2022/12/15 13:52:02;;;;;;;49.23;26.30;;;;;;;4.49;57.95;96238.41;5047091;28;20417;-72
2022/12/15 13:54:33;;;;;;;51.17;27.80;;;;;;;4.49;57.83;96243.59;5044563;28;20479;-70
2022/12/15 13:57:04;;;;;;;44.47;26.10;;;;;;;4.48;57.27;96241.97;5049398;28;20450;-71
2022/12/15 13:59:33;;;;;;;45.83;26.87;;;;;;;4.54;57.97;96246.59;5048104;28;20546;-71
2022/12/15 14:01:59;;;;;;;48.10;26.87;;;;;;;4.52;57.30;96243.34;5049622;28;20890;-71
2022/12/15 14:04:24;;;;;;;49.00;26.93;;;;;;;4.55;57.63;96237.84;5045963;28;20509;-71
2022/12/15 14:06:55;;;;;;;43.27;25.80;;;;;;;4.55;57.90;96240.44;5045224;28;20629;-70
2022/12/15 14:09:32;;;;;;;46.57;27.37;;;;;;;4.55;57.75;96240.44;5047675;28;20184;-71
2022/12/15 14:12:00;;;;;;;44.93;25.57;;;;;;;4.57;58.13;96238.53;5054865;28;20428;-71